Time;durP1;ratioP1;P1;durP2;ratioP2;P2;SDS_P1;SDS_P2;PMS_P1;PMS_P2;Temp;Humidity;BMP_temperature;BMP_pressure;BME280_temperature;BME280_humidity;BME280_pressure;Samples;Min_cycle;Max_cycle;Signal;HPM_P1;HPM_P2
2023/06/08 02:52:15;;;;;;;;;;;;;;;-144.98;100.00;62585.19;4518326;31;19930;-83
2023/06/08 03:15:08;;;;;;;;;;;;;;;-144.98;100.00;62585.19;4506714;31;19933;-74
2023/06/08 03:18:12;;;;;;;;;;;;;;;-144.98;100.00;62585.19;4652368;30;19952;-74
2023/06/08 03:21:18;;;;;;;;;;;;;;;-144.98;100.00;62585.19;4780086;29;20287;-74
2023/06/08 03:24:31;;;;;;;;;;;;;;;-144.98;100.00;62585.19;4769814;30;19979;-74
2023/06/08 03:27:38;;;;;;;;;;;;;;;-144.98;100.00;62585.19;4760321;30;19940;-74
2023/06/08 03:30:46;;;;;;;;;;;;;;;-144.98;100.00;62585.19;4759491;30;19965;-75
2023/06/08 03:33:51;;;;;;;;;;;;;;;-144.98;100.00;62585.19;4759255;30;19979;-74
2023/06/08 03:36:57;;;;;;;;;;;;;;;-144.98;100.00;62585.19;4759274;30;19929;-75
2023/06/08 03:40:03;;;;;;;;;;;;;;;-144.98;100.00;62585.19;4769688;30;19978;-74
2023/06/08 03:43:08;;;;;;;;;;;;;;;-144.98;100.00;62585.19;4759240;30;19975;-75
2023/06/08 03:46:12;;;;;;;;;;;;;;;-144.98;100.00;62585.19;4769584;30;20389;-74
2023/06/08 05:09:55;;;;;;;;;;;;;;;;;;;;;
2023/06/08 05:19:01;;;;;;;;;;;;;;;;;;;;;
2023/06/08 05:23:18;;;;;;;;;;;;;;;-144.98;100.00;62585.19;4699260;30;19933;-84
2023/06/08 05:27:49;;;;;;;;;;;;;;;-144.98;100.00;62585.19;4651678;30;20051;-83
2023/06/08 05:32:05;;;;;;;;;;;;;;;;;;;;;
2023/06/08 06:17:16;;;;;;;;;;;;;;;-144.98;100.00;62585.19;5329825;23;20331;-87
2023/06/08 06:21:16;;;;;;;;;;;;;;;-144.98;100.00;62585.19;4787643;30;19932;-88
2023/06/08 06:24:51;;;;;;;;;;;;;;;-144.98;100.00;62585.19;4789349;30;19975;-87
2023/06/08 06:42:15;;;;;;;;;;;;;;;-144.98;100.00;62585.19;4788854;30;19921;-85
2023/06/08 06:45:52;;;;;;;;;;;;;;;-144.98;100.00;62585.19;4788281;30;19926;-79
2023/06/08 06:48:56;;;;;;;;;;;;;;;-144.98;100.00;62585.19;4788873;30;19928;-78
2023/06/08 06:52:00;;;;;;;;;;;;;;;-144.98;100.00;62585.19;4788502;30;19924;-81
2023/06/08 06:55:04;;;;;;;;;;;;;;;-144.98;100.00;62585.19;4788507;30;20386;-80
2023/06/08 06:58:10;;;;;;;;;;;;;;;-144.98;100.00;62585.19;4789049;30;19976;-79
2023/06/08 07:01:23;;;;;;;;;;;;;;;-144.98;100.00;62585.19;4778014;30;19924;-74
2023/06/08 07:04:32;;;;;;;;;;;;;;;-144.98;100.00;62585.19;4788562;30;20002;-81
2023/06/08 07:08:00;;;;;;;;;;;;;;;-144.98;100.00;62585.19;4788352;30;19994;-81
2023/06/08 07:11:46;;;;;;;;;;;;;;;-144.98;100.00;62585.19;4788463;30;19924;-83
2023/06/08 07:15:16;;;;;;;;;;;;;;;-144.98;100.00;62585.19;4788018;30;19986;-90
2023/06/08 07:19:26;;;;;;;;;;;;;;;;;;;;;
2023/06/08 07:23:44;;;;;;;;;;;;;;;-144.98;100.00;62585.19;4755823;29;19970;-83
2023/06/08 07:32:33;;;;;;;;;;;;;;;;;;;;;
2023/06/08 07:37:01;;;;;;;;;;;;;;;;;;;;;
2023/06/08 07:41:11;;;;;;;;;;;;;;;;;;;;;
2023/06/08 07:45:54;;;;;;;;;;;;;;;;;;;;;
2023/06/08 08:07:22;;;;;;;;;;;;;;;-144.98;100.00;62585.19;4735811;30;20029;-84
2023/06/08 08:10:28;;;;;;;;;;;;;;;-144.98;100.00;62585.19;4779969;30;19987;-77
2023/06/08 08:14:10;;;;;;;;;;;;;;;;;;;;;
2023/06/08 08:18:17;;;;;;;;;;;;;;;-144.98;100.00;62585.19;4938050;23;20353;-82
2023/06/08 08:22:14;;;;;;;;;;;;;;;-144.98;100.00;62585.19;4809151;29;20414;-83
2023/06/08 08:49:28;;;;;;;;;;;;;;;;;;;;;
2023/06/08 08:53:30;;;;;;;;;;;;;;;-144.98;100.00;62585.19;4719569;30;19948;-85
2023/06/08 09:07:08;;;;;;;;;;;;;;;;;;;;;
2023/06/08 09:31:48;;;;;;;;;;;;;;;-144.98;100.00;62585.19;5384700;24;19925;-67
2023/06/08 09:34:53;;;;;;;;;;;;;;;-144.98;100.00;62585.19;4807984;29;19967;-68
2023/06/08 09:38:16;;;;;;;;;;;;;;;-144.98;100.00;62585.19;4807771;29;19928;-68
2023/06/08 09:41:21;;;;;;;;;;;;;;;-144.98;100.00;62585.19;4807768;29;19924;-68
2023/06/08 09:44:25;;;;;;;;;;;;;;;-144.98;100.00;62585.19;4807659;29;19924;-69
2023/06/08 09:47:28;;;;;;;;;;;;;;;-144.98;100.00;62585.19;4807709;29;20008;-68
2023/06/08 09:50:31;;;;;;;;;;;;;;;-144.98;100.00;62585.19;4807635;29;20016;-69
2023/06/08 09:53:36;;;;;;;;;;;;;;;-144.98;100.00;62585.19;4807754;29;19966;-69
2023/06/08 09:56:41;;;;;;;;;;;;;;;-144.98;100.00;62585.19;4807690;29;19928;-68
2023/06/08 09:59:46;;;;;;;;;;;;;;;-144.98;100.00;62585.19;4796589;29;19972;-69
2023/06/08 10:02:59;;;;;;;;;;;;;;;-144.98;100.00;62585.19;4807252;29;20445;-69
2023/06/08 10:06:05;;;;;;;;;;;;;;;-144.98;100.00;62585.19;4807196;29;19928;-68
2023/06/08 10:09:09;;;;;;;;;;;;;;;-144.98;100.00;62585.19;4807435;29;19924;-69
2023/06/08 10:12:12;;;;;;;;;;;;;;;-144.98;100.00;62585.19;4807367;29;19924;-69
2023/06/08 10:15:16;;;;;;;;;;;;;;;-144.98;100.00;62585.19;4807084;29;19975;-69
2023/06/08 10:18:19;;;;;;;;;;;;;;;-144.98;100.00;62585.19;4789042;30;19951;-70
2023/06/08 10:21:26;;;;;;;;;;;;;;;-144.98;100.00;62585.19;4789269;30;19947;-68
2023/06/08 10:24:30;;;;;;;;;;;;;;;-144.98;100.00;62585.19;4788994;30;20385;-68
2023/06/08 10:27:35;;;;;;;;;;;;;;;-144.98;100.00;62585.19;4788444;29;19947;-69
2023/06/08 10:30:40;;;;;;;;;;;;;;;-144.98;100.00;62585.19;4788860;30;20023;-71
2023/06/08 10:33:43;;;;;;;;;;;;;;;-144.98;100.00;62585.19;4788790;30;19932;-69
2023/06/08 10:36:46;;;;;;;;;;;;;;;-144.98;100.00;62585.19;4788789;30;19951;-68
2023/06/08 10:39:51;;;;;;;;;;;;;;;-144.98;100.00;62585.19;4788851;30;19923;-69
2023/06/08 10:42:55;;;;;;;;;;;;;;;-144.98;100.00;62585.19;4788659;30;19924;-70
2023/06/08 10:45:58;;;;;;;;;;;;;;;-144.98;100.00;62585.19;4788656;30;19924;-70
2023/06/08 10:49:03;;;;;;;;;;;;;;;-144.98;100.00;62585.19;4788417;30;19966;-69
2023/06/08 10:52:17;;;;;;;;;;;;;;;23.19;58.35;100446.06;5090335;27;19916;-69
2023/06/08 10:55:25;;;;;;;;;;;;;;;23.24;56.69;100436.75;5090389;28;19923;-71
2023/06/08 10:58:55;;;;;;;;;;;;;;;23.26;56.01;100445.41;5090469;28;19923;-90
2023/06/08 11:02:07;;;;;;;;;;;;;;;23.31;56.09;100430.59;5090431;28;19961;-84
2023/06/08 11:05:14;;;;;;;;;;;;;;;23.29;55.64;100435.25;5089729;28;20014;-81
2023/06/08 11:08:23;;;;;;;;;;;;;;;23.31;55.29;100433.25;5090334;28;19958;-81
2023/06/08 11:11:26;;;;;;;;;;;;;;;23.28;55.51;100438.94;5090316;28;20379;-81
2023/06/08 11:14:29;;;;;;;;;;;;;;;23.27;55.59;100431.94;5090106;28;19923;-80
2023/06/08 11:17:40;;;;;;;;;;;;;;;23.24;56.35;100429.59;5090010;28;19999;-82
2023/06/08 11:20:43;;;;;;;;;;;;;;;23.21;55.89;100437.91;5090082;28;20390;-77
2023/06/08 11:23:46;;;;;;;;;;;;;;;23.16;55.85;100432.22;5089925;28;20357;-80
2023/06/08 11:26:50;;;;;;;;;;;;;;;23.00;56.00;100445.53;5090181;28;20447;-78
2023/06/08 11:30:00;;;;;;;;;;;;;;;22.89;53.49;100439.47;5089743;28;20304;-80
2023/06/08 11:33:08;;;;;;;;;;;;;;;22.55;49.33;100436.03;5088829;28;19969;-77
2023/06/08 11:36:11;;;;;;;;;;;;;;;22.43;46.59;100431.00;5089542;28;19923;-81
2023/06/08 11:39:14;;;;;;;;;;;;;;;22.51;47.69;100432.84;5089844;28;19939;-75
2023/06/08 11:42:18;;;;;;;;;;;;;;;22.59;48.41;100426.69;5089317;28;19942;-74
2023/06/08 11:45:21;;;;;;;;;;;;;;;22.66;47.25;100422.41;5089184;28;19924;-82
2023/06/08 11:48:24;;;;;;;;;;;;;;;22.38;48.51;100424.47;5088846;28;19962;-81
2023/06/08 11:51:27;;;;;;;;;;;;;;;22.63;50.42;100412.91;5102955;28;19927;-74
2023/06/08 11:54:34;;;;;;;;;;;;;;;22.87;48.90;100398.81;5109509;28;20295;-76
2023/06/08 11:57:45;;;;;;;;;;;;;;;23.11;46.19;100390.06;5109490;28;20452;-76
2023/06/08 12:00:48;;;;;;;;;;;;;;;23.30;46.22;100383.59;5109425;28;19923;-76
2023/06/08 12:03:51;;;;;;;;;;;;;;;23.33;42.86;100379.75;5095361;28;20283;-76
2023/06/08 12:06:55;;;;;;;;;;;;;;;23.37;42.38;100375.75;5096026;28;19969;-76
2023/06/08 12:10:03;;;;;;;;;;;;;;;23.40;44.00;100376.25;5095828;28;19923;-76
2023/06/08 12:13:43;;;;;;;;;;;;;;;23.51;41.74;100372.38;5096149;28;19950;-76
2023/06/08 12:17:14;;;;;;;;;;;;;;;23.72;43.34;100366.56;5093457;28;19923;-76
2023/06/08 12:20:20;;;;;;;;;;;;;;;24.05;42.50;100370.00;5093747;28;19927;-76
2023/06/08 12:23:24;;;;;;;;;;;;;;;24.37;41.42;100358.34;5095839;28;19939;-76
2023/06/08 12:26:33;;;;;;;;;;;;;;;24.58;41.45;100355.13;5095343;28;20391;-76
2023/06/08 12:29:37;;;;;;;;;;;;;;;24.68;42.23;100346.88;5106450;28;19924;-76
2023/06/08 12:32:41;;;;;;;;;;;;;;;24.78;45.93;100336.78;5095339;28;19927;-77
2023/06/08 12:35:55;;;;;;;;;;;;;;;25.04;46.45;100340.94;5095599;28;19923;-75
2023/06/08 12:38:59;;;;;;;;;;;;;;;25.00;44.76;100339.63;5095376;28;19975;-75
2023/06/08 12:42:02;;;;;;;;;;;;;;;25.32;45.94;100332.41;5094966;28;19938;-75
2023/06/08 12:45:05;;;;;;;;;;;;;;;25.57;45.92;100333.00;5094982;28;19927;-75
2023/06/08 12:48:09;;;;;;;;;;;;;;;25.67;46.31;100329.03;5094765;28;20340;-75
2023/06/08 12:51:12;;;;;;;;;;;;;;;25.66;44.48;100322.03;5094619;28;20018;-75
2023/06/08 12:54:15;;;;;;;;;;;;;;;25.62;44.18;100327.91;5094894;28;19923;-74
2023/06/08 12:57:19;;;;;;;;;;;;;;;25.89;44.67;100327.31;5094794;28;19966;-74
2023/06/08 13:00:22;;;;;;;;;;;;;;;25.98;42.74;100318.19;5094670;28;19922;-74
2023/06/08 13:03:26;;;;;;;;;;;;;;;26.12;42.85;100311.13;5094401;28;19942;-75
2023/06/08 13:06:29;;;;;;;;;;;;;;;26.39;42.86;100306.94;5094750;28;19923;-77
2023/06/08 13:09:32;;;;;;;;;;;;;;;26.64;42.71;100298.56;5094406;28;19923;-77
2023/06/08 13:12:35;;;;;;;;;;;;;;;26.83;40.33;100294.44;5094554;28;20043;-79
2023/06/08 13:15:39;;;;;;;;;;;;;;;26.56;40.63;100291.50;5093692;28;19923;-79
2023/06/08 13:18:42;;;;;;;;;;;;;;;26.74;40.57;100274.13;5094076;28;19970;-73
2023/06/08 13:21:46;;;;;;;;;;;;;;;27.06;39.92;100288.88;5094046;28;19926;-78
2023/06/08 13:24:49;;;;;;;;;;;;;;;27.05;41.04;100281.81;5094116;28;20440;-78
2023/06/08 13:27:53;;;;;;;;;;;;;;;27.53;40.31;100288.22;5093943;28;19970;-77
2023/06/08 13:30:57;;;;;;;;;;;;;;;27.31;39.33;100291.97;5094050;28;19943;-80
2023/06/08 13:34:00;;;;;;;;;;;;;;;27.52;38.72;100275.81;5093846;28;19942;-75
2023/06/08 13:37:04;;;;;;;;;;;;;;;27.97;38.75;100284.34;5093974;28;20047;-75
2023/06/08 13:40:10;;;;;;;;;;;;;;;28.32;39.03;100281.59;5093930;28;19948;-76
2023/06/08 13:43:14;;;;;;;;;;;;;;;28.73;37.66;100259.16;5093801;28;19923;-77
2023/06/08 13:46:16;;;;;;;;;;;;;;;29.08;37.46;100256.31;5093586;28;19922;-76
2023/06/08 13:49:23;;;;;;;;;;;;;;;29.01;37.71;100252.81;5093668;28;20004;-69
2023/06/08 13:52:28;;;;;;;;;;;;;;;29.12;36.23;100257.56;5093623;28;20021;-69
2023/06/08 13:55:31;;;;;;;;;;;;;;;28.73;36.15;100260.00;5093541;28;19966;-69
2023/06/08 13:58:35;;;;;;;;;;;;;;;28.11;37.47;100257.53;5093577;28;20020;-69
2023/06/08 14:01:39;;;;;;;;;;;;;;;28.16;38.78;100249.69;5092688;28;19968;-68
2023/06/08 14:04:42;;;;;;;;;;;;;;;28.46;37.17;100251.06;5093852;28;19955;-69
2023/06/08 14:07:47;;;;;;;;;;;;;;;28.59;34.63;100249.41;5093613;28;19923;-70
2023/06/08 14:10:51;;;;;;;;;;;;;;;29.09;34.19;100239.94;5093201;28;19973;-70
2023/06/08 14:13:56;;;;;;;;;;;;;;;28.89;34.73;100226.47;5093205;28;20169;-70
2023/06/08 14:16:59;;;;;;;;;;;;;;;28.35;36.58;100229.28;5092509;28;19923;-70
2023/06/08 14:20:04;;;;;;;;;;;;;;;28.51;36.41;100229.75;5093151;28;19942;-70
2023/06/08 14:23:10;;;;;;;;;;;;;;;28.62;36.02;100241.78;5093299;28;19957;-70
2023/06/08 14:26:14;;;;;;;;;;;;;;;29.72;35.38;100241.31;5092847;28;19923;-70
2023/06/08 14:29:17;;;;;;;;;;;;;;;29.26;35.76;100237.66;5091799;28;19923;-70
2023/06/08 14:32:23;;;;;;;;;;;;;;;30.38;34.40;100234.78;5092660;28;20412;-70
2023/06/08 14:35:27;;;;;;;;;;;;;;;32.34;30.97;100233.28;5093086;28;19969;-70
2023/06/08 14:38:30;;;;;;;;;;;;;;;33.14;28.60;100215.81;5093157;28;20329;-71
2023/06/08 14:41:34;;;;;;;;;;;;;;;35.52;25.85;100214.16;5092795;28;20428;-71
2023/06/08 14:44:37;;;;;;;;;;;;;;;35.55;24.51;100219.94;5092975;28;19923;-73
2023/06/08 14:47:41;;;;;;;;;;;;;;;36.56;23.44;100218.59;5092751;28;19922;-74
2023/06/08 14:50:46;;;;;;;;;;;;;;;36.84;21.86;100216.66;5092699;28;19930;-73
2023/06/08 14:53:52;;;;;;;;;;;;;;;37.32;22.27;100220.25;5092752;28;19923;-73
2023/06/08 14:56:55;;;;;;;;;;;;;;;35.36;22.65;100230.28;5092638;28;19943;-73
2023/06/08 14:59:58;;;;;;;;;;;;;;;36.78;21.14;100223.94;5093077;28;19922;-73
2023/06/08 15:03:04;;;;;;;;;;;;;;;37.51;18.64;100221.44;5093076;28;19945;-74
2023/06/08 15:06:11;;;;;;;;;;;;;;;38.04;19.11;100219.47;5093050;28;20298;-73
2023/06/08 15:09:14;;;;;;;;;;;;;;;38.70;19.79;100218.72;5092950;28;19942;-73
2023/06/08 15:12:18;;;;;;;;;;;;;;;38.57;20.56;100214.63;5092655;28;20326;-73
2023/06/08 15:15:22;;;;;;;;;;;;;;;39.12;20.75;100203.91;5092636;28;19939;-73
2023/06/08 15:18:25;;;;;;;;;;;;;;;39.62;20.47;100207.59;5092574;28;20283;-73
2023/06/08 15:21:29;;;;;;;;;;;;;;;39.46;21.11;100215.06;5092571;28;19923;-72
2023/06/08 15:24:33;;;;;;;;;;;;;;;39.37;21.45;100211.25;5092791;28;20318;-73
2023/06/08 15:27:37;;;;;;;;;;;;;;;39.41;22.42;100201.41;5092676;28;19977;-73
2023/06/08 15:30:41;;;;;;;;;;;;;;;39.83;21.74;100200.13;5092417;28;19926;-73
2023/06/08 15:33:45;;;;;;;;;;;;;;;39.17;21.27;100195.72;5092383;28;20258;-73
2023/06/08 15:36:48;;;;;;;;;;;;;;;40.10;20.10;100191.47;5092887;28;19981;-74
2023/06/08 15:39:51;;;;;;;;;;;;;;;38.98;20.50;100194.66;5096304;28;19961;-73
2023/06/08 15:42:54;;;;;;;;;;;;;;;38.60;20.67;100185.94;5096267;28;19978;-73
2023/06/08 15:45:58;;;;;;;;;;;;;;;35.28;24.15;100198.06;5096317;28;19923;-73
2023/06/08 15:49:01;;;;;;;;;;;;;;;32.50;26.55;100211.00;5096145;28;20459;-72
2023/06/08 15:52:04;;;;;;;;;;;;;;;30.27;30.87;100223.66;5095819;28;19926;-72
2023/06/08 15:55:07;;;;;;;;;;;;;;;28.67;35.25;100260.00;5096333;28;19923;-72
2023/06/08 15:58:10;;;;;;;;;;;;;;;28.29;35.39;100265.88;5095920;28;19967;-73
2023/06/08 16:01:14;;;;;;;;;;;;;;;27.52;35.70;100257.03;5096231;28;19960;-73
2023/06/08 16:04:18;;;;;;;;;;;;;;;26.84;36.24;100255.88;5095844;28;19962;-73
2023/06/08 16:07:21;;;;;;;;;;;;;;;26.49;36.04;100252.22;5095367;28;19962;-72
2023/06/08 16:10:25;;;;;;;;;;;;;;;26.06;35.54;100255.63;5095130;28;20044;-73
2023/06/08 16:13:28;;;;;;;;;;;;;;;26.07;38.24;100251.94;5095595;28;19977;-72
2023/06/08 16:16:32;;;;;;;;;;;;;;;25.80;42.33;100255.25;5095332;28;19930;-71
2023/06/08 16:19:36;;;;;;;;;;;;;;;25.14;47.08;100261.28;5095685;28;20386;-72
2023/06/08 16:22:39;;;;;;;;;;;;;;;24.24;50.82;100259.22;5095196;28;20461;-71
2023/06/08 16:25:45;;;;;;;;;;;;;;;23.94;54.79;100274.22;5095572;28;19923;-72
2023/06/08 16:28:50;;;;;;;;;;;;;;;23.38;57.78;100282.19;5095465;28;19968;-71
2023/06/08 16:31:53;;;;;;;;;;;;;;;22.96;57.96;100288.53;5095085;28;20020;-71
2023/06/08 16:34:56;;;;;;;;;;;;;;;22.45;61.82;100285.13;5095186;28;20384;-71
2023/06/08 16:37:59;;;;;;;;;;;;;;;22.16;62.01;100287.38;5095073;28;20382;-72
2023/06/08 16:41:03;;;;;;;;;;;;;;;21.95;63.12;100280.59;5095464;28;19927;-71
2023/06/08 16:44:06;;;;;;;;;;;;;;;21.87;64.80;100288.53;5095267;28;19947;-71
2023/06/08 16:47:11;;;;;;;;;;;;;;;21.70;66.01;100284.16;5094833;28;19935;-71
2023/06/08 16:50:14;;;;;;;;;;;;;;;21.58;65.91;100299.53;5094614;28;19935;-71
2023/06/08 16:53:18;;;;;;;;;;;;;;;21.45;68.54;100291.97;5094787;28;20406;-71
2023/06/08 16:56:21;;;;;;;;;;;;;;;21.14;70.31;100296.84;5094845;28;19926;-72
2023/06/08 16:59:25;;;;;;;;;;;;;;;21.36;69.25;100292.91;5094554;28;19927;-72
2023/06/08 17:02:28;;;;;;;;;;;;;;;21.41;68.84;100298.59;5094483;28;19942;-71
2023/06/08 17:05:32;;;;;;;;;;;;;;;21.27;70.97;100312.41;5094865;28;19939;-70
2023/06/08 17:08:38;;;;;;;;;;;;;;;21.10;71.90;100306.97;5094388;28;19927;-71
2023/06/08 17:11:41;;;;;;;;;;;;;;;20.99;71.82;100309.84;5094436;28;19927;-71
2023/06/08 17:14:44;;;;;;;;;;;;;;;20.88;72.43;100307.44;5094430;28;20384;-72
2023/06/08 17:17:47;;;;;;;;;;;;;;;21.10;70.17;100314.09;5094367;28;19923;-71
2023/06/08 17:20:50;;;;;;;;;;;;;;;21.30;68.94;100322.75;5094148;28;19977;-71
2023/06/08 17:23:53;;;;;;;;;;;;;;;21.24;69.82;100326.00;5094178;28;19927;-71
2023/06/08 17:27:00;;;;;;;;;;;;;;;21.31;69.79;100327.06;5094069;28;19941;-71
2023/06/08 17:30:04;;;;;;;;;;;;;;;21.30;70.92;100336.03;5093987;28;19923;-71
2023/06/08 17:33:07;;;;;;;;;;;;;;;21.20;70.38;100343.28;5094049;28;19973;-71
2023/06/08 17:36:11;;;;;;;;;;;;;;;21.34;71.10;100338.22;5094041;28;19923;-71
2023/06/08 17:39:16;;;;;;;;;;;;;;;21.45;71.14;100342.50;5094179;28;20259;-71
2023/06/08 17:42:21;;;;;;;;;;;;;;;21.29;72.08;100355.66;5092984;28;19927;-71
2023/06/08 17:45:24;;;;;;;;;;;;;;;21.33;71.66;100355.19;5093748;28;19974;-72
2023/06/08 17:48:27;;;;;;;;;;;;;;;21.10;72.86;100344.19;5093812;28;19923;-71
2023/06/08 17:51:30;;;;;;;;;;;;;;;21.11;72.00;100345.84;5093257;28;20016;-71
2023/06/08 17:54:34;;;;;;;;;;;;;;;21.04;72.57;100339.47;5093574;28;19939;-72
2023/06/08 17:57:39;;;;;;;;;;;;;;;21.01;73.72;100329.16;5093453;28;19946;-72
2023/06/08 18:00:43;;;;;;;;;;;;;;;20.96;73.84;100339.38;5093066;28;20393;-72
2023/06/08 18:03:49;;;;;;;;;;;;;;;20.85;74.58;100332.47;5093577;28;19972;-72
2023/06/08 18:06:52;;;;;;;;;;;;;;;20.88;74.64;100332.19;5093364;28;20479;-71
2023/06/08 18:09:55;;;;;;;;;;;;;;;20.81;75.29;100333.78;5093389;28;20366;-71
2023/06/08 18:12:59;;;;;;;;;;;;;;;20.80;75.37;100336.56;5093623;28;20327;-72
2023/06/08 18:16:02;;;;;;;;;;;;;;;20.67;76.24;100336.94;5093241;28;20409;-71
2023/06/08 18:19:05;;;;;;;;;;;;;;;20.59;76.98;100335.03;5093231;28;20307;-75
2023/06/08 18:26:01;;;;;;;;;;;;;;;20.51;77.38;100337.59;5044438;28;19969;-80
2023/06/08 18:29:31;;;;;;;;;;;;;;;20.52;77.06;100336.63;5091172;28;20009;-90
2023/06/08 18:32:38;;;;;;;;;;;;;;;20.54;77.18;100334.66;5091832;28;19927;-76
2023/06/08 18:35:45;;;;;;;;;;;;;;;20.67;75.99;100328.97;5093311;28;20015;-81
2023/06/08 18:38:52;;;;;;;;;;;;;;;20.51;75.88;100337.59;5093004;28;19923;-80
2023/06/08 18:42:05;;;;;;;;;;;;;;;20.28;77.77;100342.44;5092590;28;19922;-77
2023/06/08 18:45:15;;;;;;;;;;;;;;;20.15;78.59;100340.13;5091668;28;20441;-83
2023/06/08 18:48:18;;;;;;;;;;;;;;;20.17;78.42;100332.03;5092789;28;19960;-77
2023/06/08 18:51:23;;;;;;;;;;;;;;;19.97;79.32;100339.22;5092526;28;20423;-81
2023/06/08 18:54:27;;;;;;;;;;;;;;;20.04;78.21;100345.66;5092876;28;19989;-79
2023/06/08 18:57:32;;;;;;;;;;;;;;;20.12;78.09;100358.19;5092963;28;20271;-80
2023/06/08 19:00:35;;;;;;;;;;;;;;;19.86;80.13;100363.28;5092945;28;19942;-79
2023/06/08 19:03:38;;;;;;;;;;;;;;;19.75;80.83;100372.28;5092985;28;19939;-78
2023/06/08 19:06:46;;;;;;;;;;;;;;;19.63;81.27;100368.91;5092890;28;20061;-78
2023/06/08 19:09:50;;;;;;;;;;;;;;;19.75;80.30;100382.88;5092998;28;19969;-78
2023/06/08 19:12:54;;;;;;;;;;;;;;;19.64;81.30;100390.97;5094309;28;20383;-78
2023/06/08 19:15:57;;;;;;;;;;;;;;;19.35;82.70;100390.97;5095261;28;19985;-80
2023/06/08 19:19:24;;;;;;;;;;;;;;;19.46;81.14;100393.47;5096770;28;19978;-80
2023/06/08 19:22:28;;;;;;;;;;;;;;;19.34;80.32;100384.84;5096124;28;20451;-79
2023/06/08 19:25:37;;;;;;;;;;;;;;;19.37;80.38;100389.88;5096554;28;20301;-79
2023/06/08 19:28:41;;;;;;;;;;;;;;;19.47;79.79;100405.78;5095882;28;19980;-78
2023/06/08 19:31:43;;;;;;;;;;;;;;;19.26;80.53;100411.19;5096425;28;20330;-78
2023/06/08 19:34:47;;;;;;;;;;;;;;;19.00;82.06;100397.66;5095699;28;20025;-77
2023/06/08 19:37:59;;;;;;;;;;;;;;;18.90;81.68;100395.00;5096357;28;20385;-78
2023/06/08 19:41:02;;;;;;;;;;;;;;;18.77;82.61;100403.19;5096494;28;19930;-79
2023/06/08 19:44:05;;;;;;;;;;;;;;;18.79;82.00;100403.91;5094600;28;19978;-78
2023/06/08 19:47:16;;;;;;;;;;;;;;;18.91;81.27;100406.41;5094707;28;20359;-79
2023/06/08 19:50:48;;;;;;;;;;;;;;;18.67;81.35;100412.06;5094464;28;19959;-79
2023/06/08 19:54:51;;;;;;;;;;;;;;;18.49;82.61;100420.63;5095302;28;19931;-78
2023/06/08 20:03:22;;;;;;;;;;;;;;;18.48;81.80;100429.56;5021175;28;19932;-80
2023/06/08 20:16:24;;;;;;;;;;;;;;;18.25;81.26;100434.19;4997708;28;20092;-77
2023/06/08 20:19:33;;;;;;;;;;;;;;;17.99;82.09;100433.75;5021784;28;19924;-77
2023/06/08 20:22:54;;;;;;;;;;;;;;;17.79;83.47;100442.53;5022650;28;19928;-77
2023/06/08 20:26:02;;;;;;;;;;;;;;;17.75;83.53;100447.22;5033200;28;20422;-77
2023/06/08 20:29:06;;;;;;;;;;;;;;;17.65;83.89;100455.09;5033519;28;19924;-78
2023/06/08 20:32:11;;;;;;;;;;;;;;;17.71;83.42;100460.81;5069052;28;19965;-75
2023/06/08 20:35:16;;;;;;;;;;;;;;;17.60;83.55;100454.63;5095644;28;19947;-77
2023/06/08 20:38:19;;;;;;;;;;;;;;;17.57;83.78;100459.31;5094402;28;19923;-78
2023/06/08 20:41:23;;;;;;;;;;;;;;;17.47;83.96;100461.03;5095185;28;20295;-80
2023/06/08 20:44:26;;;;;;;;;;;;;;;17.36;84.05;100461.94;5095460;28;19930;-79
2023/06/08 20:47:30;;;;;;;;;;;;;;;17.38;83.87;100460.81;5094919;28;19923;-78
2023/06/08 20:50:33;;;;;;;;;;;;;;;17.38;83.70;100460.81;5094801;28;20436;-79
2023/06/08 20:53:36;;;;;;;;;;;;;;;17.50;83.02;100474.00;5094932;28;19927;-78
2023/06/08 20:56:38;;;;;;;;;;;;;;;17.27;83.59;100467.97;5094940;28;19922;-78
2023/06/08 20:59:41;;;;;;;;;;;;;;;17.20;83.38;100473.75;5095033;28;19958;-80
2023/06/08 21:02:49;;;;;;;;;;;;;;;17.18;83.73;100474.84;5094713;28;20016;-79
2023/06/08 21:05:53;;;;;;;;;;;;;;;17.12;84.33;100477.97;5094809;28;19923;-79
2023/06/08 21:08:56;;;;;;;;;;;;;;;17.27;83.52;100487.31;5094721;28;19934;-79
2023/06/08 21:11:59;;;;;;;;;;;;;;;17.38;83.08;100487.25;5094621;28;20287;-79
2023/06/08 21:15:02;;;;;;;;;;;;;;;17.14;83.83;100484.81;5094584;28;19926;-78
2023/06/08 21:18:05;;;;;;;;;;;;;;;17.08;84.35;100480.00;5094475;28;20420;-79
2023/06/08 21:21:11;;;;;;;;;;;;;;;17.20;83.97;100484.31;5094617;28;19942;-78
2023/06/08 21:24:16;;;;;;;;;;;;;;;17.23;83.21;100485.00;5094355;28;20412;-78
2023/06/08 21:27:20;;;;;;;;;;;;;;;17.00;84.04;100492.16;5094195;28;19962;-78
2023/06/08 21:30:26;;;;;;;;;;;;;;;16.99;84.38;100491.31;5094214;28;19965;-78
2023/06/08 21:33:51;;;;;;;;;;;;;;;16.94;85.09;100494.34;5094419;28;19985;-79
2023/06/08 21:36:57;;;;;;;;;;;;;;;16.87;85.83;100495.75;5094099;28;19923;-79
2023/06/08 21:40:05;;;;;;;;;;;;;;;16.85;86.04;100502.97;5094411;28;19922;-79
2023/06/08 21:43:10;;;;;;;;;;;;;;;16.87;86.04;100502.84;5094101;28;19969;-79
2023/06/08 21:46:14;;;;;;;;;;;;;;;16.85;86.77;100502.16;5093891;28;19923;-79
2023/06/08 21:49:17;;;;;;;;;;;;;;;17.03;86.40;100508.59;5093910;28;19927;-79
2023/06/08 21:52:21;;;;;;;;;;;;;;;17.07;86.11;100509.19;5093689;28;19943;-79
2023/06/08 21:55:24;;;;;;;;;;;;;;;17.10;85.96;100509.81;5104738;28;19985;-79
2023/06/08 21:58:27;;;;;;;;;;;;;;;17.00;86.04;100513.28;5093631;28;20382;-79
2023/06/08 22:01:30;;;;;;;;;;;;;;;16.94;85.78;100517.25;5093539;28;20416;-79
2023/06/08 22:04:33;;;;;;;;;;;;;;;16.94;85.63;100526.03;5093600;28;20001;-78
2023/06/08 22:07:37;;;;;;;;;;;;;;;16.87;85.26;100532.72;5093824;28;19923;-78
2023/06/08 22:10:40;;;;;;;;;;;;;;;16.83;85.21;100536.59;5093635;28;19943;-78
2023/06/08 22:13:49;;;;;;;;;;;;;;;16.84;84.38;100535.59;5093548;28;19962;-78
2023/06/08 22:16:53;;;;;;;;;;;;;;;16.86;83.56;100538.97;5093324;28;20013;-78
2023/06/08 22:20:01;;;;;;;;;;;;;;;16.99;82.45;100527.47;5093440;28;19926;-78
2023/06/08 22:23:05;;;;;;;;;;;;;;;16.85;81.98;100526.75;5093357;28;20456;-78
2023/06/08 22:26:12;;;;;;;;;;;;;;;16.66;82.51;100513.28;5093237;28;19923;-78
2023/06/08 22:29:17;;;;;;;;;;;;;;;16.69;81.95;100513.03;5093350;28;19930;-78
2023/06/08 22:32:20;;;;;;;;;;;;;;;16.63;82.84;100510.88;5093134;28;19993;-78
2023/06/08 22:35:23;;;;;;;;;;;;;;;16.68;82.24;100503.41;5093533;28;19938;-78
2023/06/08 22:38:26;;;;;;;;;;;;;;;16.37;83.48;100504.94;5093120;28;19927;-79
2023/06/08 22:41:29;;;;;;;;;;;;;;;16.45;83.05;100503.41;5093086;28;20420;-79
2023/06/08 22:44:32;;;;;;;;;;;;;;;16.49;82.39;100504.00;5092997;28;19923;-78
2023/06/08 22:47:39;;;;;;;;;;;;;;;16.36;82.72;100508.56;5092915;28;20007;-79
2023/06/08 22:50:45;;;;;;;;;;;;;;;16.44;82.53;100495.63;5092745;28;20019;-79
2023/06/08 22:53:48;;;;;;;;;;;;;;;16.20;82.31;100496.53;5092879;28;20012;-79
2023/06/08 22:56:51;;;;;;;;;;;;;;;15.96;83.47;100485.22;5093235;28;20340;-79
2023/06/08 22:59:55;;;;;;;;;;;;;;;16.10;83.09;100486.81;5092360;28;19923;-79
2023/06/08 23:02:59;;;;;;;;;;;;;;;16.14;83.44;100481.16;5092889;28;20390;-77
2023/06/08 23:06:02;;;;;;;;;;;;;;;16.02;83.90;100479.47;5092844;28;19926;-77
2023/06/08 23:09:05;;;;;;;;;;;;;;;16.14;82.86;100467.13;5092860;28;19986;-77
2023/06/08 23:12:12;;;;;;;;;;;;;;;16.09;82.97;100453.47;5092693;28;19962;-77
2023/06/08 23:15:17;;;;;;;;;;;;;;;15.80;84.38;100457.38;5092642;28;19961;-78
2023/06/08 23:18:24;;;;;;;;;;;;;;;15.72;84.75;100461.53;5092786;28;19923;-78
2023/06/08 23:21:28;;;;;;;;;;;;;;;15.90;83.53;100457.50;5103866;28;20291;-77
2023/06/08 23:24:31;;;;;;;;;;;;;;;15.90;83.39;100454.88;5092826;28;19970;-77
2023/06/08 23:27:34;;;;;;;;;;;;;;;15.81;83.97;100453.75;5092782;28;20005;-77
2023/06/08 23:30:38;;;;;;;;;;;;;;;15.82;83.68;100446.69;5091738;28;20299;-77
2023/06/08 23:33:41;;;;;;;;;;;;;;;15.64;84.58;100438.34;5103606;28;20016;-78